sensor_id;sensor_type;location;lat;lon;timestamp;pressure;altitude;pressure_sealevel;temperature;humidity
27429;BME280;14881;48.092;11.574;2023-01-31T00:01:26;96072.94;;;1.95;100.00
27429;BME280;14881;48.092;11.574;2023-01-31T00:03:55;96076.06;;;1.92;100.00
27429;BME280;14881;48.092;11.574;2023-01-31T00:06:26;96079.75;;;1.91;100.00
27429;BME280;14881;48.092;11.574;2023-01-31T00:08:54;96090.88;;;1.94;100.00
27429;BME280;14881;48.092;11.574;2023-01-31T00:11:25;96087.81;;;1.91;100.00
27429;BME280;14881;48.092;11.574;2023-01-31T00:13:54;96078.59;;;1.87;100.00
27429;BME280;14881;48.092;11.574;2023-01-31T00:16:22;96077.16;;;1.84;100.00
27429;BME280;14881;48.092;11.574;2023-01-31T00:18:50;96074.06;;;1.87;100.00
27429;BME280;14881;48.092;11.574;2023-01-31T00:21:21;96075.31;;;1.85;100.00
27429;BME280;14881;48.092;11.574;2023-01-31T00:23:51;96079.41;;;1.87;100.00
27429;BME280;14881;48.092;11.574;2023-01-31T00:26:21;96071.72;;;1.91;100.00
27429;BME280;14881;48.092;11.574;2023-01-31T00:28:51;96073.03;;;1.88;100.00
27429;BME280;14881;48.092;11.574;2023-01-31T00:31:20;96078.59;;;1.87;100.00
27429;BME280;14881;48.092;11.574;2023-01-31T00:33:49;96060.88;;;1.86;100.00
27429;BME280;14881;48.092;11.574;2023-01-31T00:36:19;96069.72;;;1.86;100.00
27429;BME280;14881;48.092;11.574;2023-01-31T00:38:47;96078.81;;;1.85;100.00
27429;BME280;14881;48.092;11.574;2023-01-31T00:41:17;96080.88;;;1.83;100.00
27429;BME280;14881;48.092;11.574;2023-01-31T00:43:46;96084.38;;;1.84;100.00
27429;BME280;14881;48.092;11.574;2023-01-31T00:46:14;96079.47;;;1.81;100.00
27429;BME280;14881;48.092;11.574;2023-01-31T00:48:42;96082.75;;;1.83;100.00
27429;BME280;14881;48.092;11.574;2023-01-31T00:51:10;96083.78;;;1.82;100.00
27429;BME280;14881;48.092;11.574;2023-01-31T00:53:38;96087.94;;;1.78;100.00
27429;BME280;14881;48.092;11.574;2023-01-31T00:56:07;96095.09;;;1.84;100.00
27429;BME280;14881;48.092;11.574;2023-01-31T00:58:37;96085.63;;;1.81;100.00
27429;BME280;14881;48.092;11.574;2023-01-31T01:01:06;96076.19;;;1.79;100.00
27429;BME280;14881;48.092;11.574;2023-01-31T01:03:35;96069.06;;;1.72;100.00
27429;BME280;14881;48.092;11.574;2023-01-31T01:06:04;96069.19;;;1.78;100.00
27429;BME280;14881;48.092;11.574;2023-01-31T01:08:33;96072.69;;;1.78;100.00
27429;BME280;14881;48.092;11.574;2023-01-31T01:11:06;96082.78;;;1.76;100.00
27429;BME280;14881;48.092;11.574;2023-01-31T01:13:34;96072.69;;;1.78;100.00
27429;BME280;14881;48.092;11.574;2023-01-31T01:16:05;96079.50;;;1.74;100.00
27429;BME280;14881;48.092;11.574;2023-01-31T01:18:33;96067.94;;;1.80;100.00
27429;BME280;14881;48.092;11.574;2023-01-31T01:21:08;96073.50;;;1.79;100.00
27429;BME280;14881;48.092;11.574;2023-01-31T01:23:37;96081.16;;;1.75;100.00
27429;BME280;14881;48.092;11.574;2023-01-31T01:26:05;96082.66;;;1.71;100.00
27429;BME280;14881;48.092;11.574;2023-01-31T01:28:39;96079.97;;;1.71;100.00
27429;BME280;14881;48.092;11.574;2023-01-31T01:31:12;96083.69;;;1.70;100.00
27429;BME280;14881;48.092;11.574;2023-01-31T01:33:42;96085.78;;;1.68;100.00
27429;BME280;14881;48.092;11.574;2023-01-31T01:36:12;96095.22;;;1.70;100.00
27429;BME280;14881;48.092;11.574;2023-01-31T01:38:43;96095.06;;;1.65;100.00
27429;BME280;14881;48.092;11.574;2023-01-31T01:41:11;96096.88;;;1.71;100.00
27429;BME280;14881;48.092;11.574;2023-01-31T01:43:44;96101.19;;;1.72;100.00
27429;BME280;14881;48.092;11.574;2023-01-31T01:46:15;96097.44;;;1.73;100.00
27429;BME280;14881;48.092;11.574;2023-01-31T01:48:46;96101.41;;;1.71;100.00
27429;BME280;14881;48.092;11.574;2023-01-31T01:51:15;96105.94;;;1.70;100.00
27429;BME280;14881;48.092;11.574;2023-01-31T01:53:46;96106.16;;;1.69;100.00
27429;BME280;14881;48.092;11.574;2023-01-31T01:56:20;96101.41;;;1.71;100.00
27429;BME280;14881;48.092;11.574;2023-01-31T01:58:54;96105.56;;;1.67;100.00
27429;BME280;14881;48.092;11.574;2023-01-31T02:01:28;96098.94;;;1.69;100.00
27429;BME280;14881;48.092;11.574;2023-01-31T02:03:56;96105.97;;;1.64;100.00
27429;BME280;14881;48.092;11.574;2023-01-31T02:06:24;96110.31;;;1.65;100.00
27429;BME280;14881;48.092;11.574;2023-01-31T02:08:53;96122.03;;;1.64;100.00
27429;BME280;14881;48.092;11.574;2023-01-31T02:11:23;96123.91;;;1.63;100.00
27429;BME280;14881;48.092;11.574;2023-01-31T02:13:56;96122.88;;;1.64;100.00
27429;BME280;14881;48.092;11.574;2023-01-31T02:16:26;96109.88;;;1.68;100.00
27429;BME280;14881;48.092;11.574;2023-01-31T02:18:55;96114.22;;;1.62;100.00
27429;BME280;14881;48.092;11.574;2023-01-31T02:21:49;96118.59;;;1.57;100.00
27429;BME280;14881;48.092;11.574;2023-01-31T02:27:38;96128.94;;;1.53;100.00
27429;BME280;14881;48.092;11.574;2023-01-31T02:30:33;96131.41;;;1.55;100.00
27429;BME280;14881;48.092;11.574;2023-01-31T02:33:17;96138.00;;;1.52;100.00
27429;BME280;14881;48.092;11.574;2023-01-31T02:35:57;96143.34;;;1.52;100.00
27429;BME280;14881;48.092;11.574;2023-01-31T02:38:41;96135.53;;;1.51;100.00
27429;BME280;14881;48.092;11.574;2023-01-31T02:41:15;96143.56;;;1.51;100.00
27429;BME280;14881;48.092;11.574;2023-01-31T02:43:51;96130.41;;;1.49;100.00
27429;BME280;14881;48.092;11.574;2023-01-31T02:46:48;96127.72;;;1.49;100.00
27429;BME280;14881;48.092;11.574;2023-01-31T02:49:22;96124.84;;;1.51;100.00
27429;BME280;14881;48.092;11.574;2023-01-31T02:52:07;96138.00;;;1.52;100.00
27429;BME280;14881;48.092;11.574;2023-01-31T02:54:58;96141.75;;;1.45;100.00
27429;BME280;14881;48.092;11.574;2023-01-31T02:57:48;96135.41;;;1.39;100.00
27429;BME280;14881;48.092;11.574;2023-01-31T03:00:18;96146.72;;;1.41;100.00
27429;BME280;14881;48.092;11.574;2023-01-31T03:02:47;96139.06;;;1.45;100.00
27429;BME280;14881;48.092;11.574;2023-01-31T03:05:17;96146.72;;;1.41;100.00
27429;BME280;14881;48.092;11.574;2023-01-31T03:07:47;96134.53;;;1.45;100.00
27429;BME280;14881;48.092;11.574;2023-01-31T03:10:36;96145.03;;;1.47;100.00
27429;BME280;14881;48.092;11.574;2023-01-31T03:13:30;96153.50;;;1.44;100.00
27429;BME280;14881;48.092;11.574;2023-01-31T03:16:07;96152.88;;;1.42;100.00
27429;BME280;14881;48.092;11.574;2023-01-31T03:19:01;96155.97;;;1.45;100.00
27429;BME280;14881;48.092;11.574;2023-01-31T03:21:43;96147.72;;;1.47;100.00
27429;BME280;14881;48.092;11.574;2023-01-31T03:24:14;96146.28;;;1.44;100.00
27429;BME280;14881;48.092;11.574;2023-01-31T03:26:44;96145.69;;;1.42;100.00
27429;BME280;14881;48.092;11.574;2023-01-31T03:29:14;96149.56;;;1.46;100.00
27429;BME280;14881;48.092;11.574;2023-01-31T03:31:46;96158.09;;;1.36;100.00
27429;BME280;14881;48.092;11.574;2023-01-31T03:34:15;96169.84;;;1.29;100.00
27429;BME280;14881;48.092;11.574;2023-01-31T03:36:51;96178.09;;;1.27;100.00
27429;BME280;14881;48.092;11.574;2023-01-31T03:39:28;96171.72;;;1.28;100.00
27429;BME280;14881;48.092;11.574;2023-01-31T03:42:01;96181.59;;;1.28;100.00
27429;BME280;14881;48.092;11.574;2023-01-31T03:44:38;96184.47;;;1.26;100.00
27429;BME280;14881;48.092;11.574;2023-01-31T03:47:13;96176.28;;;1.21;100.00
27429;BME280;14881;48.092;11.574;2023-01-31T03:49:42;96176.53;;;1.13;100.00
27429;BME280;14881;48.092;11.574;2023-01-31T03:52:15;96175.53;;;1.08;100.00
27429;BME280;14881;48.092;11.574;2023-01-31T03:54:52;96178.88;;;0.96;100.00
27429;BME280;14881;48.092;11.574;2023-01-31T03:57:24;96186.69;;;0.98;100.00
27429;BME280;14881;48.092;11.574;2023-01-31T03:59:57;96177.03;;;0.97;100.00
27429;BME280;14881;48.092;11.574;2023-01-31T04:02:31;96182.19;;;0.92;100.00
27429;BME280;14881;48.092;11.574;2023-01-31T04:05:04;96175.88;;;0.80;100.00
27429;BME280;14881;48.092;11.574;2023-01-31T04:07:35;96185.97;;;0.71;100.00
27429;BME280;14881;48.092;11.574;2023-01-31T04:10:06;96185.78;;;0.66;100.00
27429;BME280;14881;48.092;11.574;2023-01-31T04:12:37;96183.34;;;0.64;100.00
27429;BME280;14881;48.092;11.574;2023-01-31T04:15:06;96198.34;;;0.65;100.00
27429;BME280;14881;48.092;11.574;2023-01-31T04:17:34;96197.72;;;0.63;100.00
27429;BME280;14881;48.092;11.574;2023-01-31T04:20:03;96204.88;;;0.69;100.00
27429;BME280;14881;48.092;11.574;2023-01-31T04:22:31;96210.47;;;0.68;100.00
27429;BME280;14881;48.092;11.574;2023-01-31T04:25:01;96206.53;;;0.70;100.00
27429;BME280;14881;48.092;11.574;2023-01-31T04:27:28;96211.25;;;0.75;100.00
27429;BME280;14881;48.092;11.574;2023-01-31T04:29:56;96215.56;;;0.76;100.00
27429;BME280;14881;48.092;11.574;2023-01-31T04:32:24;96215.16;;;0.79;100.00
27429;BME280;14881;48.092;11.574;2023-01-31T04:34:51;96207.72;;;0.88;100.00
27429;BME280;14881;48.092;11.574;2023-01-31T04:37:19;96208.38;;;0.83;100.00
27429;BME280;14881;48.092;11.574;2023-01-31T04:39:47;96220.69;;;0.84;100.00
27429;BME280;14881;48.092;11.574;2023-01-31T04:42:16;96226.66;;;0.86;100.00
27429;BME280;14881;48.092;11.574;2023-01-31T04:44:44;96226.06;;;0.84;100.00
27429;BME280;14881;48.092;11.574;2023-01-31T04:47:11;96228.13;;;0.82;100.00
27429;BME280;14881;48.092;11.574;2023-01-31T04:49:39;96224.78;;;0.87;100.00
27429;BME280;14881;48.092;11.574;2023-01-31T04:52:07;96228.69;;;0.91;100.00
27429;BME280;14881;48.092;11.574;2023-01-31T04:54:36;96226.44;;;0.88;100.00
27429;BME280;14881;48.092;11.574;2023-01-31T04:57:03;96233.22;;;0.90;100.00
27429;BME280;14881;48.092;11.574;2023-01-31T04:59:32;96241.22;;;0.90;100.00
27429;BME280;14881;48.092;11.574;2023-01-31T05:02:02;96242.47;;;0.88;100.00
27429;BME280;14881;48.092;11.574;2023-01-31T05:04:30;96247.19;;;0.92;100.00
27429;BME280;14881;48.092;11.574;2023-01-31T05:06:58;96244.72;;;0.91;100.00
27429;BME280;14881;48.092;11.574;2023-01-31T05:09:25;96249.47;;;0.89;100.00
27429;BME280;14881;48.092;11.574;2023-01-31T05:11:53;96264.09;;;0.86;100.00
27429;BME280;14881;48.092;11.574;2023-01-31T05:14:21;96252.59;;;0.79;100.00
27429;BME280;14881;48.092;11.574;2023-01-31T05:16:50;96242.09;;;0.84;100.00
27429;BME280;14881;48.092;11.574;2023-01-31T05:19:17;96247.03;;;0.81;100.00
27429;BME280;14881;48.092;11.574;2023-01-31T05:21:47;96257.31;;;0.84;100.00
27429;BME280;14881;48.092;11.574;2023-01-31T05:24:25;96267.59;;;0.80;100.00
27429;BME280;14881;48.092;11.574;2023-01-31T05:26:53;96271.50;;;0.84;100.00
27429;BME280;14881;48.092;11.574;2023-01-31T05:29:24;96264.53;;;0.83;100.00
27429;BME280;14881;48.092;11.574;2023-01-31T05:31:55;96268.03;;;0.84;100.00
27429;BME280;14881;48.092;11.574;2023-01-31T05:34:24;96264.72;;;0.75;100.00
27429;BME280;14881;48.092;11.574;2023-01-31T05:36:52;96274.59;;;0.75;100.00
27429;BME280;14881;48.092;11.574;2023-01-31T05:39:19;96271.53;;;0.71;100.00
27429;BME280;14881;48.092;11.574;2023-01-31T05:41:47;96267.66;;;0.67;100.00
27429;BME280;14881;48.092;11.574;2023-01-31T05:44:15;96267.66;;;0.67;100.00
27429;BME280;14881;48.092;11.574;2023-01-31T05:46:43;96272.56;;;0.70;100.00
27429;BME280;14881;48.092;11.574;2023-01-31T05:49:13;96276.47;;;0.74;100.00
27429;BME280;14881;48.092;11.574;2023-01-31T05:51:41;96275.22;;;0.70;100.00
27429;BME280;14881;48.092;11.574;2023-01-31T05:54:09;96283.25;;;0.70;100.00
27429;BME280;14881;48.092;11.574;2023-01-31T05:56:37;96280.81;;;0.68;100.00
27429;BME280;14881;48.092;11.574;2023-01-31T05:59:05;96283.91;;;0.65;100.00
27429;BME280;14881;48.092;11.574;2023-01-31T06:01:33;96293.75;;;0.65;100.00
27429;BME280;14881;48.092;11.574;2023-01-31T06:04:00;96284.72;;;0.66;100.00
27429;BME280;14881;48.092;11.574;2023-01-31T06:06:29;96283.06;;;0.65;100.00
27429;BME280;14881;48.092;11.574;2023-01-31T06:08:57;96273.78;;;0.74;100.00
27429;BME280;14881;48.092;11.574;2023-01-31T06:11:25;96280.78;;;0.75;100.00
27429;BME280;14881;48.092;11.574;2023-01-31T06:13:53;96281.19;;;0.72;100.00
27429;BME280;14881;48.092;11.574;2023-01-31T06:16:23;96270.28;;;0.74;100.00
27429;BME280;14881;48.092;11.574;2023-01-31T06:18:51;96269.88;;;0.77;100.00
27429;BME280;14881;48.092;11.574;2023-01-31T06:21:21;96269.06;;;0.76;100.00
27429;BME280;14881;48.092;11.574;2023-01-31T06:23:50;96265.56;;;0.82;100.00
27429;BME280;14881;48.092;11.574;2023-01-31T06:26:17;96270.69;;;0.77;100.00
27429;BME280;14881;48.092;11.574;2023-01-31T06:28:45;96262.69;;;0.77;100.00
27429;BME280;14881;48.092;11.574;2023-01-31T06:31:13;96262.25;;;0.80;100.00
27429;BME280;14881;48.092;11.574;2023-01-31T06:33:41;96271.31;;;0.79;100.00
27429;BME280;14881;48.092;11.574;2023-01-31T06:36:13;96273.56;;;0.82;100.00
27429;BME280;14881;48.092;11.574;2023-01-31T06:38:49;96272.13;;;0.80;100.00
27429;BME280;14881;48.092;11.574;2023-01-31T06:41:17;96277.47;;;0.80;100.00
27429;BME280;14881;48.092;11.574;2023-01-31T06:43:45;96284.88;;;0.78;100.00
27429;BME280;14881;48.092;11.574;2023-01-31T06:46:13;96286.13;;;0.82;100.00
27429;BME280;14881;48.092;11.574;2023-01-31T06:48:40;96294.16;;;0.82;100.00
27429;BME280;14881;48.092;11.574;2023-01-31T06:51:09;96286.31;;;0.80;100.00
27429;BME280;14881;48.092;11.574;2023-01-31T06:53:37;96285.50;;;0.80;100.00
27429;BME280;14881;48.092;11.574;2023-01-31T06:56:06;96282.84;;;0.80;100.00
27429;BME280;14881;48.092;11.574;2023-01-31T06:58:34;96285.50;;;0.80;100.00
27429;BME280;14881;48.092;11.574;2023-01-31T07:01:06;96293.94;;;0.77;100.00
27429;BME280;14881;48.092;11.574;2023-01-31T07:03:34;96293.94;;;0.70;100.00
27429;BME280;14881;48.092;11.574;2023-01-31T07:06:02;96313.91;;;0.67;100.00
27429;BME280;14881;48.092;11.574;2023-01-31T07:08:30;96312.88;;;0.55;100.00
27429;BME280;14881;48.092;11.574;2023-01-31T07:11:01;96320.28;;;0.53;100.00
27429;BME280;14881;48.092;11.574;2023-01-31T07:13:31;96326.88;;;0.51;100.00
27429;BME280;14881;48.092;11.574;2023-01-31T07:15:58;96321.09;;;0.54;100.00
27429;BME280;14881;48.092;11.574;2023-01-31T07:18:26;96305.06;;;0.54;100.00
27429;BME280;14881;48.092;11.574;2023-01-31T07:20:54;96311.66;;;0.58;100.00
27429;BME280;14881;48.092;11.574;2023-01-31T07:23:22;96315.16;;;0.58;100.00
27429;BME280;14881;48.092;11.574;2023-01-31T07:25:49;96311.25;;;0.61;100.00
27429;BME280;14881;48.092;11.574;2023-01-31T07:28:17;96312.69;;;0.63;100.00
27429;BME280;14881;48.092;11.574;2023-01-31T07:30:46;96309.16;;;0.69;100.00
27429;BME280;14881;48.092;11.574;2023-01-31T07:33:14;96312.88;;;0.82;100.00
27429;BME280;14881;48.092;11.574;2023-01-31T07:35:43;96309.16;;;0.83;100.00
27429;BME280;14881;48.092;11.574;2023-01-31T07:38:10;96305.22;;;0.92;100.00
27429;BME280;14881;48.092;11.574;2023-01-31T07:40:38;96307.88;;;0.98;100.00
27429;BME280;14881;48.092;11.574;2023-01-31T07:43:06;96301.47;;;1.06;100.00
27429;BME280;14881;48.092;11.574;2023-01-31T07:45:34;96303.31;;;1.12;100.00
27429;BME280;14881;48.092;11.574;2023-01-31T07:48:04;96299.00;;;1.11;100.00
27429;BME280;14881;48.092;11.574;2023-01-31T07:50:32;96300.44;;;1.07;100.00
27429;BME280;14881;48.092;11.574;2023-01-31T07:53:00;96295.09;;;1.07;100.00
27429;BME280;14881;48.092;11.574;2023-01-31T07:55:28;96301.50;;;0.99;100.00
27429;BME280;14881;48.092;11.574;2023-01-31T07:57:56;96307.47;;;1.01;100.00
27429;BME280;14881;48.092;11.574;2023-01-31T08:00:24;96307.47;;;0.95;100.00
27429;BME280;14881;48.092;11.574;2023-01-31T08:03:16;96306.44;;;0.96;100.00
27429;BME280;14881;48.092;11.574;2023-01-31T08:06:01;96308.72;;;0.99;100.00
27429;BME280;14881;48.092;11.574;2023-01-31T08:08:30;96307.88;;;0.98;100.00
27429;BME280;14881;48.092;11.574;2023-01-31T08:10:58;96306.00;;;1.05;100.00
27429;BME280;14881;48.092;11.574;2023-01-31T08:13:28;96305.16;;;1.12;100.00
27429;BME280;14881;48.092;11.574;2023-01-31T08:15:58;96304.53;;;1.16;100.00
27429;BME280;14881;48.092;11.574;2023-01-31T08:18:27;96296.31;;;1.18;100.00
27429;BME280;14881;48.092;11.574;2023-01-31T08:20:55;96300.44;;;1.20;100.00
27429;BME280;14881;48.092;11.574;2023-01-31T08:23:23;96298.16;;;1.17;100.00
27429;BME280;14881;48.092;11.574;2023-01-31T08:25:51;96298.94;;;1.24;100.00
27429;BME280;14881;48.092;11.574;2023-01-31T08:28:18;96316.03;;;1.30;100.00
27429;BME280;14881;48.092;11.574;2023-01-31T08:30:46;96306.97;;;1.31;100.00
27429;BME280;14881;48.092;11.574;2023-01-31T08:33:35;96314.31;;;1.42;100.00
27429;BME280;14881;48.092;11.574;2023-01-31T08:36:10;96311.03;;;1.40;100.00
27429;BME280;14881;48.092;11.574;2023-01-31T08:38:38;96308.94;;;1.49;100.00
27429;BME280;14881;48.092;11.574;2023-01-31T08:41:06;96308.09;;;1.55;100.00
27429;BME280;14881;48.092;11.574;2023-01-31T08:43:34;96313.00;;;1.58;100.00
27429;BME280;14881;48.092;11.574;2023-01-31T08:46:21;96319.59;;;1.62;100.00
27429;BME280;14881;48.092;11.574;2023-01-31T08:48:50;96312.16;;;1.64;100.00
27429;BME280;14881;48.092;11.574;2023-01-31T08:51:18;96313.19;;;1.69;100.00
27429;BME280;14881;48.092;11.574;2023-01-31T08:53:46;96318.25;;;1.84;100.00
27429;BME280;14881;48.092;11.574;2023-01-31T08:56:14;96307.72;;;1.89;100.00
27429;BME280;14881;48.092;11.574;2023-01-31T08:58:43;96310.34;;;1.96;100.00
27429;BME280;14881;48.092;11.574;2023-01-31T09:01:12;96308.66;;;2.01;100.00
27429;BME280;14881;48.092;11.574;2023-01-31T09:03:41;96300.94;;;2.18;100.00
27429;BME280;14881;48.092;11.574;2023-01-31T09:06:14;96305.63;;;2.23;100.00
27429;BME280;14881;48.092;11.574;2023-01-31T09:08:42;96303.28;;;2.33;100.00
27429;BME280;14881;48.092;11.574;2023-01-31T09:11:10;96293.69;;;2.43;100.00
27429;BME280;14881;48.092;11.574;2023-01-31T09:13:42;96297.16;;;2.51;100.00
27429;BME280;14881;48.092;11.574;2023-01-31T09:16:12;96299.81;;;2.57;100.00
27429;BME280;14881;48.092;11.574;2023-01-31T09:18:41;96292.06;;;2.67;100.00
27429;BME280;14881;48.092;11.574;2023-01-31T09:21:12;96297.81;;;2.71;100.00
27429;BME280;14881;48.092;11.574;2023-01-31T09:23:40;96291.19;;;2.73;100.00
27429;BME280;14881;48.092;11.574;2023-01-31T09:26:09;96295.44;;;2.81;100.00
27429;BME280;14881;48.092;11.574;2023-01-31T09:28:37;96287.31;;;2.69;100.00
27429;BME280;14881;48.092;11.574;2023-01-31T09:31:09;96293.91;;;2.67;100.00
27429;BME280;14881;48.092;11.574;2023-01-31T09:33:37;96296.28;;;2.57;100.00
27429;BME280;14881;48.092;11.574;2023-01-31T09:36:07;96301.16;;;2.66;100.00
27429;BME280;14881;48.092;11.574;2023-01-31T09:38:37;96300.53;;;2.89;100.00
27429;BME280;14881;48.092;11.574;2023-01-31T09:41:15;96321.69;;;2.97;100.00
27429;BME280;14881;48.092;11.574;2023-01-31T09:43:49;96309.84;;;2.87;100.00
27429;BME280;14881;48.092;11.574;2023-01-31T09:46:20;96311.66;;;2.93;100.00
27429;BME280;14881;48.092;11.574;2023-01-31T09:48:52;96317.75;;;3.00;100.00
27429;BME280;14881;48.092;11.574;2023-01-31T09:51:22;96321.88;;;3.21;100.00
27429;BME280;14881;48.092;11.574;2023-01-31T09:53:54;96314.97;;;2.88;100.00
27429;BME280;14881;48.092;11.574;2023-01-31T09:56:28;96313.41;;;2.99;100.00
27429;BME280;14881;48.092;11.574;2023-01-31T09:58:58;96320.53;;;3.30;100.00
27429;BME280;14881;48.092;11.574;2023-01-31T10:01:37;96318.97;;;3.89;100.00
27429;BME280;14881;48.092;11.574;2023-01-31T10:04:19;96322.34;;;3.84;100.00
27429;BME280;14881;48.092;11.574;2023-01-31T10:06:55;96316.56;;;3.32;100.00
27429;BME280;14881;48.092;11.574;2023-01-31T10:09:29;96322.09;;;3.19;100.00
27429;BME280;14881;48.092;11.574;2023-01-31T10:12:04;96311.59;;;3.84;100.00
27429;BME280;14881;48.092;11.574;2023-01-31T10:14:41;96315.94;;;4.15;100.00
27429;BME280;14881;48.092;11.574;2023-01-31T10:17:15;96308.56;;;3.80;100.00
27429;BME280;14881;48.092;11.574;2023-01-31T10:19:47;96294.06;;;3.81;100.00
27429;BME280;14881;48.092;11.574;2023-01-31T10:22:19;96295.63;;;3.89;100.00
27429;BME280;14881;48.092;11.574;2023-01-31T10:24:55;96291.81;;;4.08;100.00
27429;BME280;14881;48.092;11.574;2023-01-31T10:27:36;96280.94;;;3.73;100.00
27429;BME280;14881;48.092;11.574;2023-01-31T10:30:15;96269.47;;;3.96;100.00
27429;BME280;14881;48.092;11.574;2023-01-31T10:32:46;96262.69;;;4.59;100.00
27429;BME280;14881;48.092;11.574;2023-01-31T10:35:20;96263.25;;;4.37;100.00
27429;BME280;14881;48.092;11.574;2023-01-31T10:37:53;96261.44;;;4.08;100.00
27429;BME280;14881;48.092;11.574;2023-01-31T10:40:27;96267.50;;;3.73;100.00
27429;BME280;14881;48.092;11.574;2023-01-31T10:43:03;96267.66;;;3.78;100.00
27429;BME280;14881;48.092;11.574;2023-01-31T10:45:36;96264.78;;;3.92;100.00
27429;BME280;14881;48.092;11.574;2023-01-31T10:48:13;96273.06;;;3.90;100.00
27429;BME280;14881;48.092;11.574;2023-01-31T10:50:51;96269.78;;;3.58;100.00
27429;BME280;14881;48.092;11.574;2023-01-31T10:53:38;96258.94;;;3.65;100.00
27429;BME280;14881;48.092;11.574;2023-01-31T10:56:17;96273.59;;;3.50;100.00
27429;BME280;14881;48.092;11.574;2023-01-31T10:58:51;96261.13;;;3.56;100.00
27429;BME280;14881;48.092;11.574;2023-01-31T11:01:18;96252.56;;;3.47;100.00
27429;BME280;14881;48.092;11.574;2023-01-31T11:03:48;96256.97;;;3.42;100.00
27429;BME280;14881;48.092;11.574;2023-01-31T11:06:17;96250.13;;;3.28;100.00
27429;BME280;14881;48.092;11.574;2023-01-31T11:08:48;96252.00;;;3.27;100.00
27429;BME280;14881;48.092;11.574;2023-01-31T11:11:19;96248.19;;;2.98;100.00
27429;BME280;14881;48.092;11.574;2023-01-31T11:13:58;96228.91;;;3.08;100.00
27429;BME280;14881;48.092;11.574;2023-01-31T11:16:29;96231.13;;;3.11;100.00
27429;BME280;14881;48.092;11.574;2023-01-31T11:18:58;96227.09;;;3.02;100.00
27429;BME280;14881;48.092;11.574;2023-01-31T11:21:29;96226.00;;;2.91;100.00
27429;BME280;14881;48.092;11.574;2023-01-31T11:24:01;96219.38;;;2.94;100.00
27429;BME280;14881;48.092;11.574;2023-01-31T11:26:33;96204.53;;;2.73;100.00
27429;BME280;14881;48.092;11.574;2023-01-31T11:29:08;96202.94;;;2.84;100.00
27429;BME280;14881;48.092;11.574;2023-01-31T11:31:40;96203.56;;;2.86;100.00
27429;BME280;14881;48.092;11.574;2023-01-31T11:34:19;96194.28;;;3.00;100.00
27429;BME280;14881;48.092;11.574;2023-01-31T11:36:47;96187.59;;;3.09;100.00
27429;BME280;14881;48.092;11.574;2023-01-31T11:39:27;96185.25;;;3.12;100.00
27429;BME280;14881;48.092;11.574;2023-01-31T11:42:04;96175.09;;;3.14;100.00
27429;BME280;14881;48.092;11.574;2023-01-31T11:44:32;96171.22;;;3.29;100.00
27429;BME280;14881;48.092;11.574;2023-01-31T11:47:02;96159.16;;;3.20;100.00
27429;BME280;14881;48.092;11.574;2023-01-31T11:49:33;96170.41;;;3.28;100.00
27429;BME280;14881;48.092;11.574;2023-01-31T11:52:11;96164.28;;;3.21;100.00
27429;BME280;14881;48.092;11.574;2023-01-31T11:54:42;96159.66;;;3.28;100.00
27429;BME280;14881;48.092;11.574;2023-01-31T11:57:15;96155.03;;;3.47;100.00
27429;BME280;14881;48.092;11.574;2023-01-31T11:59:43;96149.00;;;3.52;100.00
27429;BME280;14881;48.092;11.574;2023-01-31T12:02:24;96139.41;;;3.44;100.00
27429;BME280;14881;48.092;11.574;2023-01-31T12:04:53;96125.69;;;3.34;100.00
27429;BME280;14881;48.092;11.574;2023-01-31T12:07:23;96131.69;;;3.47;100.00
27429;BME280;14881;48.092;11.574;2023-01-31T12:09:51;96130.22;;;3.22;100.00
27429;BME280;14881;48.092;11.574;2023-01-31T12:12:27;96124.28;;;3.31;100.00
27429;BME280;14881;48.092;11.574;2023-01-31T12:15:00;96123.00;;;3.34;100.00
27429;BME280;14881;48.092;11.574;2023-01-31T12:17:30;96106.47;;;3.48;100.00
27429;BME280;14881;48.092;11.574;2023-01-31T12:20:13;96106.38;;;3.43;100.00
27429;BME280;14881;48.092;11.574;2023-01-31T12:23:01;96101.00;;;3.55;100.00
27429;BME280;14881;48.092;11.574;2023-01-31T12:25:45;96098.16;;;3.38;100.00
27429;BME280;14881;48.092;11.574;2023-01-31T12:28:25;96113.31;;;3.33;100.00
27429;BME280;14881;48.092;11.574;2023-01-31T12:31:12;96110.69;;;3.44;100.00
27429;BME280;14881;48.092;11.574;2023-01-31T12:33:56;96120.28;;;3.64;100.00
27429;BME280;14881;48.092;11.574;2023-01-31T12:36:38;96116.13;;;3.79;100.00
27429;BME280;14881;48.092;11.574;2023-01-31T12:39:17;96102.59;;;3.98;100.00
27429;BME280;14881;48.092;11.574;2023-01-31T12:41:59;96105.59;;;4.01;100.00
27429;BME280;14881;48.092;11.574;2023-01-31T12:44:41;96107.16;;;3.97;100.00
27429;BME280;14881;48.092;11.574;2023-01-31T12:50:15;96099.72;;;3.58;100.00
27429;BME280;14881;48.092;11.574;2023-01-31T12:52:53;96091.66;;;3.46;100.00
27429;BME280;14881;48.092;11.574;2023-01-31T12:55:35;96093.38;;;3.29;100.00
27429;BME280;14881;48.092;11.574;2023-01-31T12:58:22;96083.25;;;3.42;100.00
27429;BME280;14881;48.092;11.574;2023-01-31T13:00:59;96085.13;;;3.65;100.00
27429;BME280;14881;48.092;11.574;2023-01-31T13:03:39;96088.66;;;3.77;100.00
27429;BME280;14881;48.092;11.574;2023-01-31T13:06:18;96091.13;;;4.02;100.00
27429;BME280;14881;48.092;11.574;2023-01-31T13:08:53;96092.03;;;4.19;100.00
27429;BME280;14881;48.092;11.574;2023-01-31T13:11:37;96081.66;;;4.11;100.00
27429;BME280;14881;48.092;11.574;2023-01-31T13:14:11;96075.81;;;4.26;100.00
27429;BME280;14881;48.092;11.574;2023-01-31T13:16:43;96062.56;;;4.36;100.00
27429;BME280;14881;48.092;11.574;2023-01-31T13:19:17;96054.34;;;4.54;100.00
27429;BME280;14881;48.092;11.574;2023-01-31T13:21:48;96052.41;;;4.78;100.00